Terminal Aerodrome Forecast
Issued by NWS

Home | Current Version | Previous Version | Text Only | Print | Product List | Glossary Off
Versions: 1 2 3 4 5 6 7 8 9 10 11 12 13 14 15 16

000
FTUS43 KMPX 191600 AAA
TAFRWF
TAF AMD
KRWF 191643Z 1917/2012 24010G16KT P6SM SKC
     FM191900 27011KT P6SM SKC
     FM200100 31007KT P6SM SKC=

USA.gov is the U.S. government's official web portal to all federal, state and local government web resources and services.